createdAt,value
2019-03-03T00:01:22.189Z,7.40
2019-03-03T00:03:51.569Z,8.73
2019-03-03T00:06:20.665Z,7.97
2019-03-03T00:08:49.773Z,7.90
2019-03-03T00:11:18.894Z,6.97
2019-03-03T00:13:48.013Z,7.43
2019-03-03T00:16:17.127Z,6.33
2019-03-03T00:18:46.220Z,6.53
2019-03-03T00:21:15.357Z,6.93
2019-03-03T00:23:44.368Z,6.67
2019-03-03T00:26:13.553Z,12.57
2019-03-03T00:28:42.564Z,7.77
2019-03-03T00:31:11.667Z,7.87
2019-03-03T00:33:40.803Z,8.33
2019-03-03T00:36:09.884Z,9.73
2019-03-03T00:38:51.692Z,7.70
2019-03-03T00:41:38.485Z,7.33
2019-03-03T00:44:29.675Z,6.93
2019-03-03T00:47:16.892Z,7.30
2019-03-03T00:50:14.002Z,7.23
2019-03-03T00:53:00.456Z,12.10
2019-03-03T00:55:41.559Z,8.80
2019-03-03T00:58:34.295Z,7.60
2019-03-03T01:01:08.109Z,8.17
2019-03-03T01:04:02.115Z,7.50
2019-03-03T01:06:55.966Z,7.43
2019-03-03T01:09:48.361Z,7.53
2019-03-03T01:12:33.271Z,6.90
2019-03-03T01:15:21.102Z,7.37
2019-03-03T01:18:12.478Z,7.53
2019-03-03T01:21:06.850Z,7.00
2019-03-03T01:23:48.999Z,7.63
2019-03-03T01:26:18.400Z,7.40
2019-03-03T01:28:47.481Z,7.30
2019-03-03T01:31:16.702Z,7.40
2019-03-03T01:33:45.805Z,6.97
2019-03-03T01:36:14.858Z,7.80
2019-03-03T01:38:43.927Z,7.47
2019-03-03T01:41:13.058Z,7.47
2019-03-03T01:43:42.156Z,8.23
2019-03-03T01:46:11.270Z,7.80
2019-03-03T01:48:40.292Z,7.83
2019-03-03T01:51:09.342Z,8.10
2019-03-03T01:53:38.489Z,7.63
2019-03-03T01:56:07.587Z,7.60
2019-03-03T01:58:36.931Z,7.60
2019-03-03T02:01:06.096Z,8.30
2019-03-03T02:03:35.369Z,7.90
2019-03-03T02:06:05.136Z,8.73
2019-03-03T02:08:34.365Z,8.00
2019-03-03T02:11:03.663Z,8.10
2019-03-03T02:13:33.095Z,8.73
2019-03-03T02:16:03.051Z,8.70
2019-03-03T02:18:32.169Z,8.37
2019-03-03T02:21:01.299Z,8.63
2019-03-03T02:23:30.401Z,8.20
2019-03-03T02:25:59.531Z,8.60
2019-03-03T02:28:28.672Z,8.43
2019-03-03T02:30:57.725Z,7.97
2019-03-03T02:33:26.818Z,8.27
2019-03-03T02:35:56.167Z,7.77
2019-03-03T02:38:25.230Z,7.90
2019-03-03T02:40:54.348Z,7.30
2019-03-03T02:43:23.430Z,7.47
2019-03-03T02:45:52.467Z,7.50
2019-03-03T02:48:21.523Z,7.63
2019-03-03T02:50:50.666Z,6.90
2019-03-03T02:53:19.722Z,7.23
2019-03-03T02:55:48.775Z,8.10
2019-03-03T02:58:17.841Z,7.13
2019-03-03T03:00:54.440Z,7.53
2019-03-03T03:03:23.541Z,7.43
2019-03-03T03:06:17.960Z,6.93
2019-03-03T03:09:09.553Z,6.47
2019-03-03T03:12:03.561Z,7.53
2019-03-03T03:14:49.881Z,6.63
2019-03-03T03:17:47.311Z,7.27
2019-03-03T03:20:23.197Z,6.77
2019-03-03T03:22:59.217Z,7.40
2019-03-03T03:26:05.707Z,6.87
2019-03-03T03:28:47.882Z,6.77
2019-03-03T03:31:36.281Z,6.47
2019-03-03T03:34:15.861Z,6.40
2019-03-03T03:37:02.763Z,6.40
2019-03-03T03:39:51.447Z,6.20
2019-03-03T03:42:51.761Z,6.80
2019-03-03T03:45:29.371Z,6.10
2019-03-03T03:48:17.494Z,6.07
2019-03-03T03:50:59.063Z,6.57
2019-03-03T03:53:41.550Z,5.77
2019-03-03T03:56:35.818Z,6.37
2019-03-03T03:59:22.672Z,6.13
2019-03-03T04:02:17.850Z,5.73
2019-03-03T04:05:15.078Z,6.13
2019-03-03T04:07:56.808Z,6.33
2019-03-03T04:10:57.302Z,5.87
2019-03-03T04:13:33.263Z,5.40
2019-03-03T04:16:11.250Z,5.63
2019-03-03T04:18:51.546Z,6.30
2019-03-03T04:21:29.928Z,5.87
2019-03-03T04:24:24.160Z,5.80
2019-03-03T04:27:11.065Z,5.83
2019-03-03T04:30:05.384Z,5.67
2019-03-03T04:32:39.529Z,5.70
2019-03-03T04:35:27.588Z,5.23
2019-03-03T04:38:14.919Z,5.70
2019-03-03T04:40:56.063Z,5.80
2019-03-03T04:43:53.202Z,5.90
2019-03-03T04:46:47.238Z,6.43
2019-03-03T04:49:41.359Z,6.30
2019-03-03T04:52:17.366Z,6.13
2019-03-03T04:55:05.373Z,6.53
2019-03-03T04:58:08.552Z,5.93
2019-03-03T05:00:55.532Z,6.53
2019-03-03T05:03:43.064Z,6.10
2019-03-03T05:06:21.035Z,6.27
2019-03-03T05:08:57.742Z,6.50
2019-03-03T05:12:30.848Z,6.50
2019-03-03T05:15:06.424Z,7.13
2019-03-03T05:17:42.360Z,6.90
2019-03-03T05:20:11.517Z,6.77
2019-03-03T05:22:40.606Z,6.70
2019-03-03T05:25:09.728Z,7.20
2019-03-03T05:27:38.819Z,6.63
2019-03-03T05:30:07.976Z,6.60
2019-03-03T05:32:37.057Z,7.30
2019-03-03T05:35:06.366Z,7.07
2019-03-03T05:37:35.473Z,6.97
2019-03-03T05:40:04.689Z,6.30
2019-03-03T05:42:33.764Z,6.80
2019-03-03T05:45:02.875Z,6.80
2019-03-03T05:47:31.878Z,6.63
2019-03-03T05:50:01.017Z,6.67
2019-03-03T05:52:30.173Z,6.93
2019-03-03T05:54:59.204Z,6.67
2019-03-03T05:57:28.287Z,6.40
2019-03-03T05:59:57.240Z,6.30
2019-03-03T06:02:26.395Z,6.93
2019-03-03T06:04:55.443Z,7.00
2019-03-03T06:07:24.525Z,6.97
2019-03-03T06:09:53.634Z,6.83
2019-03-03T06:12:22.738Z,6.67
2019-03-03T06:14:51.846Z,7.63
2019-03-03T06:17:20.953Z,7.17
2019-03-03T06:19:50.031Z,6.83
2019-03-03T06:22:19.223Z,6.30
2019-03-03T06:24:48.417Z,7.07
2019-03-03T06:27:17.452Z,7.20
2019-03-03T06:29:46.612Z,6.87
2019-03-03T06:32:17.257Z,6.33
2019-03-03T06:34:46.676Z,8.33
2019-03-03T06:37:15.672Z,6.50
2019-03-03T06:39:45.423Z,6.83
2019-03-03T06:42:14.519Z,6.90
2019-03-03T06:44:45.631Z,6.80
2019-03-03T06:47:14.809Z,6.90
2019-03-03T06:49:44.082Z,6.60
2019-03-03T06:52:16.218Z,7.13
2019-03-03T06:54:45.700Z,6.27
2019-03-03T06:57:14.791Z,6.80
2019-03-03T06:59:46.399Z,6.60
2019-03-03T07:02:17.775Z,6.40
2019-03-03T07:04:47.468Z,6.60
2019-03-03T07:07:19.731Z,7.40
2019-03-03T07:09:48.990Z,6.47
2019-03-03T07:12:18.143Z,6.63
2019-03-03T07:14:47.109Z,6.50
2019-03-03T07:17:20.512Z,7.43
2019-03-03T07:19:49.614Z,6.70
2019-03-03T07:22:19.889Z,7.00
2019-03-03T07:24:52.849Z,6.10
2019-03-03T07:27:23.153Z,6.80
2019-03-03T07:29:54.408Z,6.60
2019-03-03T07:32:23.822Z,6.93
2019-03-03T07:34:56.304Z,6.47
2019-03-03T07:37:25.555Z,6.10
2019-03-03T07:39:54.769Z,7.20
2019-03-03T07:42:29.887Z,7.53
2019-03-03T07:44:59.079Z,6.93
2019-03-03T07:47:28.308Z,6.93
2019-03-03T07:49:57.462Z,6.73
2019-03-03T07:52:26.820Z,6.97
2019-03-03T07:54:55.949Z,6.60
2019-03-03T07:57:25.141Z,5.60
2019-03-03T07:59:57.498Z,6.60
2019-03-03T08:02:26.878Z,5.27
2019-03-03T08:04:56.068Z,6.27
2019-03-03T08:07:25.206Z,5.80
2019-03-03T08:09:54.489Z,5.83
2019-03-03T08:12:23.694Z,5.53
2019-03-03T08:14:52.889Z,5.50
2019-03-03T08:17:22.082Z,5.50
2019-03-03T08:19:51.327Z,6.03
2019-03-03T08:22:20.529Z,5.60
2019-03-03T08:24:51.354Z,5.50
2019-03-03T08:27:20.655Z,5.60
2019-03-03T08:29:49.907Z,5.20
2019-03-03T08:32:19.272Z,5.80
2019-03-03T08:34:48.484Z,5.67
2019-03-03T08:37:18.026Z,5.30
2019-03-03T08:39:47.209Z,5.03
2019-03-03T08:42:38.281Z,5.70
2019-03-03T08:45:35.281Z,5.80
2019-03-03T08:48:10.498Z,5.50
2019-03-03T08:50:49.027Z,5.47
2019-03-03T08:53:28.451Z,5.23
2019-03-03T08:56:23.063Z,5.60
2019-03-03T08:59:14.069Z,5.40
2019-03-03T09:02:03.818Z,5.20
2019-03-03T09:04:54.696Z,5.80
2019-03-03T09:07:43.154Z,5.10
2019-03-03T09:10:43.734Z,4.87
2019-03-03T09:13:47.404Z,5.03
2019-03-03T09:16:33.138Z,5.13
2019-03-03T09:19:24.894Z,5.17
2019-03-03T09:22:13.606Z,5.23
2019-03-03T09:25:08.401Z,5.20
2019-03-03T09:28:00.302Z,5.17
2019-03-03T09:30:51.448Z,4.97
2019-03-03T09:33:42.536Z,5.20
2019-03-03T09:36:40.329Z,4.67
2019-03-03T09:39:29.802Z,4.87
2019-03-03T09:42:25.276Z,4.60
2019-03-03T09:45:12.852Z,5.37
2019-03-03T09:47:51.930Z,4.70
2019-03-03T09:50:31.738Z,5.30
2019-03-03T09:53:25.191Z,4.40
2019-03-03T09:56:25.623Z,4.93
2019-03-03T09:59:12.157Z,5.20
2019-03-03T10:01:59.097Z,4.93
2019-03-03T10:04:53.520Z,5.00
2019-03-03T10:07:41.176Z,4.90
2019-03-03T10:10:19.173Z,4.80
2019-03-03T10:12:58.619Z,5.07
2019-03-03T10:18:55.036Z,5.07
2019-03-03T10:21:35.666Z,4.83
2019-03-03T10:24:14.741Z,4.73
2019-03-03T10:27:02.031Z,4.60
2019-03-03T10:29:47.331Z,4.60
2019-03-03T10:32:35.705Z,4.43
2019-03-03T10:35:36.524Z,5.23
2019-03-03T10:38:21.153Z,4.70
2019-03-03T10:41:15.374Z,5.07
2019-03-03T10:44:09.586Z,5.40
2019-03-03T10:46:49.040Z,4.80
2019-03-03T10:49:25.512Z,5.10
2019-03-03T10:52:11.301Z,5.07
2019-03-03T10:55:02.728Z,4.80
2019-03-03T10:57:44.433Z,5.07
2019-03-03T11:00:39.453Z,4.83
2019-03-03T11:03:26.964Z,5.73
2019-03-03T11:06:14.200Z,5.37
2019-03-03T11:09:02.246Z,5.07
2019-03-03T11:11:59.884Z,4.80
2019-03-03T11:14:48.251Z,5.57
2019-03-03T11:17:31.438Z,4.60
2019-03-03T11:20:19.793Z,4.87
2019-03-03T11:23:08.354Z,4.70
2019-03-03T11:25:59.736Z,5.07
2019-03-03T11:28:57.212Z,4.80
2019-03-03T11:31:43.081Z,5.07
2019-03-03T11:34:46.827Z,4.77
2019-03-03T11:37:37.991Z,4.93
2019-03-03T11:40:31.925Z,4.57
2019-03-03T11:43:10.508Z,5.00
2019-03-03T11:45:48.708Z,4.77
2019-03-03T11:48:35.945Z,5.03
2019-03-03T11:51:36.890Z,4.87
2019-03-03T11:54:18.238Z,4.80
2019-03-03T12:00:23.951Z,4.60
2019-03-03T12:03:23.413Z,4.70
2019-03-03T12:06:13.129Z,4.73
2019-03-03T12:09:20.024Z,4.90
2019-03-03T12:12:23.210Z,4.80
2019-03-03T12:15:10.024Z,4.90
2019-03-03T12:18:08.059Z,4.70
2019-03-03T12:20:59.517Z,5.47
2019-03-03T12:23:47.166Z,5.60
2019-03-03T12:26:29.719Z,5.30
2019-03-03T12:29:27.380Z,5.17
2019-03-03T12:32:10.395Z,5.13
2019-03-03T12:34:53.695Z,5.13
2019-03-03T12:37:51.130Z,5.27
2019-03-03T12:40:38.526Z,5.90
2019-03-03T12:43:14.735Z,5.30
2019-03-03T12:46:00.291Z,4.90
2019-03-03T12:48:37.823Z,5.40
2019-03-03T12:51:13.212Z,4.87
2019-03-03T12:54:10.718Z,5.27
2019-03-03T12:56:58.951Z,5.40
2019-03-03T12:59:42.378Z,4.87
2019-03-03T13:02:29.721Z,4.87
2019-03-03T13:05:18.359Z,5.00
2019-03-03T13:08:24.718Z,4.90
2019-03-03T13:11:16.559Z,5.20
2019-03-03T13:14:10.387Z,5.43
2019-03-03T13:17:10.953Z,5.07
2019-03-03T13:20:01.065Z,5.30
2019-03-03T13:22:49.380Z,4.83
2019-03-03T13:25:40.775Z,5.20
2019-03-03T13:28:41.172Z,4.93
2019-03-03T13:31:28.299Z,5.27
2019-03-03T13:34:27.722Z,4.97
2019-03-03T13:37:18.809Z,5.33
2019-03-03T13:39:57.148Z,4.93
2019-03-03T13:43:03.581Z,4.67
2019-03-03T13:45:34.593Z,5.50
2019-03-03T13:48:04.237Z,4.87
2019-03-03T13:50:33.548Z,5.43
2019-03-03T13:53:02.684Z,5.50
2019-03-03T13:55:31.858Z,4.90
2019-03-03T13:58:00.980Z,4.97
2019-03-03T14:00:30.329Z,5.63
2019-03-03T14:02:59.458Z,4.77
2019-03-03T14:05:28.620Z,4.83
2019-03-03T14:07:57.762Z,4.70
2019-03-03T14:10:26.921Z,4.40
2019-03-03T14:12:56.057Z,5.17
2019-03-03T14:15:25.593Z,5.00
2019-03-03T14:17:54.677Z,5.37
2019-03-03T14:20:24.190Z,4.80
2019-03-03T14:22:54.095Z,4.63
2019-03-03T14:25:23.288Z,4.30
2019-03-03T14:27:52.755Z,4.77
2019-03-03T14:30:23.671Z,4.60
2019-03-03T14:32:52.804Z,4.17
2019-03-03T14:35:22.079Z,4.27
2019-03-03T14:37:51.251Z,4.27
2019-03-03T14:40:20.901Z,4.47
2019-03-03T14:42:50.037Z,4.13
2019-03-03T14:45:19.497Z,4.07
2019-03-03T14:47:48.629Z,4.00
2019-03-03T14:50:18.037Z,3.90
2019-03-03T14:52:48.263Z,3.73
2019-03-03T14:55:18.382Z,5.03
2019-03-03T14:57:47.509Z,4.17
2019-03-03T15:00:24.341Z,3.70
2019-03-03T15:02:53.748Z,4.03
2019-03-03T15:05:22.883Z,3.60
2019-03-03T15:07:52.021Z,4.03
2019-03-03T15:10:21.331Z,4.07
2019-03-03T15:12:50.443Z,3.73
2019-03-03T15:15:20.638Z,3.50
2019-03-03T15:17:49.753Z,3.60
2019-03-03T15:20:19.127Z,3.70
2019-03-03T15:22:48.252Z,4.03
2019-03-03T15:25:17.610Z,3.50
2019-03-03T15:27:47.175Z,4.00
2019-03-03T15:30:18.465Z,4.27
2019-03-03T15:32:47.588Z,4.00
2019-03-03T15:35:16.910Z,3.53
2019-03-03T15:37:46.099Z,4.67
2019-03-03T15:40:16.026Z,4.60
2019-03-03T15:42:45.605Z,4.70
2019-03-03T15:45:17.543Z,4.70
2019-03-03T15:47:46.788Z,4.07
2019-03-03T15:50:17.484Z,4.40
2019-03-03T15:52:46.629Z,4.73
2019-03-03T15:55:15.798Z,4.13
2019-03-03T15:57:44.989Z,4.57
2019-03-03T16:00:20.183Z,4.83
2019-03-03T16:02:49.344Z,5.00
2019-03-03T16:05:18.524Z,4.80
2019-03-03T16:07:47.714Z,4.83
2019-03-03T16:10:17.044Z,4.60
2019-03-03T16:12:46.347Z,4.93
2019-03-03T16:15:16.229Z,4.20
2019-03-03T16:17:45.449Z,4.17
2019-03-03T16:20:17.653Z,4.17
2019-03-03T16:22:46.849Z,4.43
2019-03-03T16:25:16.876Z,4.37
2019-03-03T16:27:46.093Z,4.70
2019-03-03T16:30:17.994Z,4.47
2019-03-03T16:32:47.376Z,4.40
2019-03-03T16:35:16.946Z,4.97
2019-03-03T16:37:46.350Z,5.50
2019-03-03T16:40:17.602Z,5.80
2019-03-03T16:42:46.804Z,4.73
2019-03-03T16:45:16.537Z,4.70
2019-03-03T16:47:45.719Z,5.23
2019-03-03T16:50:16.458Z,5.43
2019-03-03T16:52:45.668Z,5.30
2019-03-03T16:55:15.338Z,5.03
2019-03-03T16:57:44.523Z,4.77
2019-03-03T17:00:16.101Z,5.07
2019-03-03T17:02:45.379Z,5.23
2019-03-03T17:05:15.230Z,5.03
2019-03-03T17:07:44.379Z,5.40
2019-03-03T17:10:13.940Z,5.63
2019-03-03T17:12:43.135Z,4.93
2019-03-03T17:15:15.196Z,4.33
2019-03-03T17:17:44.398Z,5.23
2019-03-03T17:20:13.550Z,5.00
2019-03-03T17:22:42.780Z,5.10
2019-03-03T17:25:14.335Z,4.67
2019-03-03T17:27:43.531Z,5.37
2019-03-03T17:30:15.501Z,5.17
2019-03-03T17:32:44.710Z,5.17
2019-03-03T17:35:14.054Z,4.47
2019-03-03T17:37:43.311Z,4.83
2019-03-03T17:40:17.996Z,4.53
2019-03-03T17:42:47.172Z,4.67
2019-03-03T17:45:20.141Z,5.00
2019-03-03T17:47:49.650Z,4.90
2019-03-03T17:50:20.308Z,6.07
2019-03-03T17:53:13.168Z,5.63
2019-03-03T17:55:50.003Z,4.93
2019-03-03T17:58:19.326Z,6.37
2019-03-03T18:00:49.023Z,5.27
2019-03-03T18:03:18.243Z,7.30
2019-03-03T18:05:47.671Z,4.67
2019-03-03T18:08:17.172Z,6.43
2019-03-03T18:10:46.646Z,9.37
2019-03-03T18:13:16.679Z,14.23
2019-03-03T18:15:45.941Z,14.57
2019-03-03T18:18:16.063Z,5.83
2019-03-03T18:20:45.433Z,4.90
2019-03-03T18:23:16.591Z,5.10
2019-03-03T18:25:45.852Z,5.10
2019-03-03T18:28:15.098Z,5.60
2019-03-03T18:30:44.420Z,5.10
2019-03-03T18:33:13.731Z,5.60
2019-03-03T18:35:43.070Z,6.07
2019-03-03T18:38:12.278Z,5.63
2019-03-03T18:40:41.528Z,5.13
2019-03-03T18:43:10.691Z,5.73
2019-03-03T18:45:40.167Z,5.83
2019-03-03T18:48:09.553Z,6.00
2019-03-03T18:50:39.216Z,6.03
2019-03-03T18:53:08.496Z,4.90
2019-03-03T18:55:37.637Z,5.07
2019-03-03T18:58:06.908Z,5.40
2019-03-03T19:00:36.452Z,5.40
2019-03-03T19:03:06.805Z,5.73
2019-03-03T19:05:39.757Z,6.23
2019-03-03T19:08:09.543Z,6.07
2019-03-03T19:10:38.880Z,6.23
2019-03-03T19:13:08.231Z,6.03
2019-03-03T19:15:37.502Z,6.50
2019-03-03T19:18:06.858Z,5.97
2019-03-03T19:20:36.187Z,6.40
2019-03-03T19:23:05.802Z,6.07
2019-03-03T19:25:48.855Z,5.83
2019-03-03T19:28:18.151Z,6.70
2019-03-03T19:31:21.379Z,5.77
2019-03-03T19:33:57.194Z,5.83
2019-03-03T19:36:26.547Z,6.07
2019-03-03T19:38:55.860Z,5.40
2019-03-03T19:41:25.163Z,5.63
2019-03-03T19:43:54.505Z,6.03
2019-03-03T19:46:23.817Z,5.97
2019-03-03T19:48:53.049Z,6.27
2019-03-03T19:51:22.245Z,6.03
2019-03-03T19:53:51.622Z,6.20
2019-03-03T19:56:21.061Z,5.63
2019-03-03T19:58:50.484Z,6.43
2019-03-03T20:01:19.965Z,6.47
2019-03-03T20:03:52.470Z,6.27
2019-03-03T20:06:21.975Z,5.33
2019-03-03T20:08:52.943Z,5.73
2019-03-03T20:11:22.282Z,6.33
2019-03-03T20:13:51.545Z,5.47
2019-03-03T20:16:20.906Z,5.50
2019-03-03T20:18:50.768Z,5.63
2019-03-03T20:21:20.086Z,5.77
2019-03-03T20:23:49.405Z,5.47
2019-03-03T20:26:18.579Z,5.60
2019-03-03T20:28:47.878Z,5.63
2019-03-03T20:31:17.342Z,6.27
2019-03-03T20:33:46.656Z,6.27
2019-03-03T20:36:16.056Z,5.97
2019-03-03T20:38:45.291Z,5.73
2019-03-03T20:41:14.572Z,5.03
2019-03-03T20:43:43.907Z,5.27
2019-03-03T20:46:13.649Z,5.23
2019-03-03T20:48:43.001Z,5.63
2019-03-03T20:51:12.206Z,5.43
2019-03-03T20:53:42.059Z,5.80
2019-03-03T20:56:12.247Z,5.63
2019-03-03T20:58:42.331Z,5.10
2019-03-03T21:01:12.785Z,6.63
2019-03-03T21:03:42.645Z,5.57
2019-03-03T21:06:12.003Z,6.03
2019-03-03T21:08:41.319Z,5.73
2019-03-03T21:11:10.897Z,5.90
2019-03-03T21:13:40.885Z,5.60
2019-03-03T21:16:10.105Z,5.50
2019-03-03T21:18:39.403Z,5.43
2019-03-03T21:21:08.642Z,5.43
2019-03-03T21:23:38.007Z,5.23
2019-03-03T21:26:07.249Z,5.40
2019-03-03T21:28:36.491Z,5.60
2019-03-03T21:31:05.662Z,5.30
2019-03-03T21:33:34.926Z,5.63
2019-03-03T21:36:04.071Z,5.17
2019-03-03T21:38:33.212Z,5.53
2019-03-03T21:41:02.377Z,4.90
2019-03-03T21:43:31.581Z,5.53
2019-03-03T21:46:00.765Z,5.50
2019-03-03T21:48:29.968Z,5.50
2019-03-03T21:50:59.127Z,5.73
2019-03-03T21:53:28.279Z,5.70
2019-03-03T21:55:57.494Z,5.30
2019-03-03T21:58:26.698Z,5.07
2019-03-03T22:00:55.876Z,5.23
2019-03-03T22:03:25.304Z,12.03
2019-03-03T22:05:54.607Z,9.53
2019-03-03T22:08:24.529Z,5.20
2019-03-03T22:10:53.763Z,5.70
2019-03-03T22:13:23.020Z,5.27
2019-03-03T22:15:52.208Z,5.50
2019-03-03T22:18:21.753Z,5.57
2019-03-03T22:20:51.463Z,5.27
2019-03-03T22:23:20.914Z,5.37
2019-03-03T22:25:50.104Z,5.50
2019-03-03T22:28:19.274Z,4.77
2019-03-03T22:30:48.470Z,5.73
2019-03-03T22:33:20.783Z,5.10
2019-03-03T22:35:50.012Z,5.03
2019-03-03T22:38:21.183Z,5.03
2019-03-03T22:40:50.094Z,4.87
2019-03-03T22:43:19.163Z,5.43
2019-03-03T22:45:48.306Z,5.17
2019-03-03T22:48:19.107Z,5.07
2019-03-03T22:50:48.199Z,5.13
2019-03-03T22:53:17.350Z,4.80
2019-03-03T22:55:46.770Z,5.40
2019-03-03T22:58:15.847Z,6.00
2019-03-03T23:01:20.793Z,4.40
2019-03-03T23:04:27.917Z,5.53
2019-03-03T23:07:14.982Z,4.93
2019-03-03T23:10:23.129Z,4.80
2019-03-03T23:13:51.894Z,5.00
2019-03-03T23:17:23.541Z,4.97
2019-03-03T23:20:20.793Z,5.20
2019-03-03T23:23:01.620Z,4.93
2019-03-03T23:25:48.506Z,4.73
2019-03-03T23:28:19.176Z,4.90
2019-03-03T23:30:48.604Z,5.20
2019-03-03T23:33:18.477Z,5.57
2019-03-03T23:35:47.625Z,5.17
2019-03-03T23:38:16.784Z,4.83
2019-03-03T23:40:45.993Z,5.40
2019-03-03T23:43:15.345Z,4.97
2019-03-03T23:45:44.468Z,5.23
2019-03-03T23:48:13.879Z,4.80
2019-03-03T23:50:43.034Z,5.17
2019-03-03T23:53:12.116Z,4.80
2019-03-03T23:55:41.258Z,5.30
2019-03-03T23:58:10.368Z,4.80
